Time;durP1;ratioP1;P1;durP2;ratioP2;P2;SDS_P1;SDS_P2;PMS_P1;PMS_P2;Temp;Humidity;BMP_temperature;BMP_pressure;BME280_temperature;BME280_humidity;BME280_pressure;Samples;Min_cycle;Max_cycle;Signal;HPM_P1;HPM_P2
2023/05/22 00:01:37;;;;;;;19.60;13.10;;;13.40;45.30;;;;;;5067799;28;46553;-70
2023/05/22 00:04:03;;;;;;;19.67;13.80;;;13.30;45.30;;;;;;5067422;28;46549;-72
2023/05/22 00:06:29;;;;;;;20.10;12.40;;;13.30;45.50;;;;;;5067278;28;46345;-71
2023/05/22 00:08:55;;;;;;;20.30;12.77;;;13.30;45.70;;;;;;5068446;28;46629;-70
2023/05/22 00:11:21;;;;;;;18.90;12.47;;;13.30;45.90;;;;;;5065748;28;46552;-71
2023/05/22 00:13:47;;;;;;;16.20;10.97;;;13.20;46.10;;;;;;5063030;28;47266;-71
2023/05/22 00:16:12;;;;;;;17.70;12.10;;;13.10;46.30;;;;;;5068188;28;46309;-71
2023/05/22 00:18:41;;;;;;;18.70;11.10;;;13.10;46.40;;;;;;5069664;27;46429;-70
2023/05/22 00:21:07;;;;;;;15.83;11.70;;;13.00;46.50;;;;;;5068259;28;46374;-70
2023/05/22 00:23:33;;;;;;;16.07;11.60;;;12.90;46.60;;;;;;5063952;28;46450;-71
2023/05/22 00:25:59;;;;;;;16.07;10.90;;;12.90;46.90;;;;;;5062676;27;46543;-70
2023/05/22 00:28:25;;;;;;;17.37;10.10;;;12.80;47.20;;;;;;5064683;28;46427;-70
2023/05/22 00:30:51;;;;;;;15.87;11.20;;;12.70;47.30;;;;;;5066937;28;46359;-70
2023/05/22 00:33:16;;;;;;;16.50;11.17;;;12.60;47.30;;;;;;5061821;28;46448;-69
2023/05/22 00:35:42;;;;;;;17.83;11.07;;;12.60;47.50;;;;;;5063238;28;46326;-71
2023/05/22 00:38:07;;;;;;;18.30;12.33;;;12.60;47.50;;;;;;5063719;28;46785;-70
2023/05/22 00:40:33;;;;;;;17.20;12.07;;;12.60;47.50;;;;;;5065444;28;46570;-71
2023/05/22 00:42:59;;;;;;;18.33;11.27;;;12.50;47.50;;;;;;5061246;28;46643;-70
2023/05/22 00:45:24;;;;;;;15.23;11.30;;;12.40;47.70;;;;;;5065854;28;46503;-70
2023/05/22 00:47:50;;;;;;;17.07;12.17;;;12.40;48.00;;;;;;5064366;28;46387;-70
2023/05/22 00:50:18;;;;;;;20.40;11.60;;;12.30;48.10;;;;;;5067180;27;46640;-71
2023/05/22 00:52:45;;;;;;;17.20;11.90;;;12.20;48.30;;;;;;5067680;28;46746;-70
2023/05/22 00:55:12;;;;;;;17.90;11.50;;;12.20;48.40;;;;;;5066678;28;46579;-70
2023/05/22 00:57:41;;;;;;;22.00;13.80;;;12.10;48.70;;;;;;5068044;28;46354;-70
2023/05/22 01:00:11;;;;;;;18.87;11.70;;;12.10;48.80;;;;;;5070001;28;46432;-70
2023/05/22 01:02:38;;;;;;;17.17;11.77;;;12.00;48.70;;;;;;5070776;28;47019;-70
2023/05/22 01:05:05;;;;;;;21.43;12.90;;;12.00;48.90;;;;;;5072194;27;46387;-72
2023/05/22 01:07:31;;;;;;;20.20;13.30;;;11.90;48.90;;;;;;5070747;28;45821;-70
2023/05/22 01:09:57;;;;;;;22.97;13.03;;;11.90;49.00;;;;;;5068033;27;46559;-71
2023/05/22 01:12:33;;;;;;;22.73;13.70;;;11.90;49.10;;;;;;5069532;28;46892;-71
2023/05/22 01:15:30;;;;;;;20.07;13.90;;;11.90;49.20;;;;;;5070809;28;45860;-72
2023/05/22 01:18:11;;;;;;;18.60;13.13;;;11.80;49.40;;;;;;5066111;28;46293;-72
2023/05/22 01:20:47;;;;;;;22.60;14.20;;;11.90;49.00;;;;;;5071588;28;46390;-73
2023/05/22 01:23:33;;;;;;;23.50;13.13;;;11.90;48.80;;;;;;5068688;28;46667;-70
2023/05/22 01:26:30;;;;;;;22.83;13.50;;;12.00;48.70;;;;;;5067363;28;46377;-71
2023/05/22 01:29:06;;;;;;;19.53;13.63;;;12.00;48.80;;;;;;5067707;28;46402;-72
2023/05/22 01:31:39;;;;;;;18.93;13.30;;;11.90;48.70;;;;;;5068347;28;46457;-71
2023/05/22 01:34:08;;;;;;;20.17;14.27;;;11.90;48.80;;;;;;5067960;28;47028;-71
2023/05/22 01:36:36;;;;;;;18.67;13.53;;;12.00;48.90;;;;;;5068434;28;46372;-71
2023/05/22 01:39:05;;;;;;;24.00;13.90;;;12.00;48.90;;;;;;5071788;28;45887;-71
2023/05/22 01:41:32;;;;;;;19.63;13.97;;;12.00;48.90;;;;;;5065214;28;46434;-72
2023/05/22 01:43:59;;;;;;;25.20;15.70;;;12.00;49.00;;;;;;5067727;28;46487;-72
2023/05/22 01:46:27;;;;;;;22.77;13.77;;;12.00;49.20;;;;;;5068757;28;45806;-69
2023/05/22 01:48:52;;;;;;;22.07;14.07;;;12.00;49.40;;;;;;5069606;28;46507;-71
2023/05/22 01:51:30;;;;;;;25.20;15.70;;;11.90;49.70;;;;;;5065739;28;46358;-72
2023/05/22 01:54:02;;;;;;;23.73;13.83;;;11.90;50.00;;;;;;5072090;28;46641;-71
2023/05/22 01:56:35;;;;;;;21.80;14.43;;;11.90;50.30;;;;;;5074068;28;46415;-71
2023/05/22 01:59:09;;;;;;;16.00;12.20;;;11.90;50.50;;;;;;5068243;28;46369;-71
2023/05/22 02:01:36;;;;;;;17.60;11.83;;;11.80;50.60;;;;;;5066586;28;46432;-71
2023/05/22 02:04:03;;;;;;;16.73;11.00;;;11.70;51.00;;;;;;5067979;28;46354;-69
2023/05/22 02:06:31;;;;;;;19.90;12.20;;;11.60;51.40;;;;;;5070393;28;46665;-69
2023/05/22 02:09:00;;;;;;;16.53;12.03;;;11.50;51.80;;;;;;5066643;28;45899;-69
2023/05/22 02:11:27;;;;;;;18.10;12.30;;;11.40;52.00;;;;;;5069163;28;46492;-69
2023/05/22 02:13:54;;;;;;;22.73;12.13;;;11.40;52.20;;;;;;5065659;28;46761;-69
2023/05/22 02:16:20;;;;;;;21.20;12.07;;;11.40;52.60;;;;;;5067515;28;46414;-69
2023/05/22 02:18:47;;;;;;;18.00;12.23;;;11.30;52.80;;;;;;5068085;27;46353;-69
2023/05/22 02:21:12;;;;;;;22.53;12.93;;;11.40;52.60;;;;;;5072029;28;46547;-69
2023/05/22 02:23:38;;;;;;;18.50;12.27;;;11.40;52.30;;;;;;5068324;28;46437;-69
2023/05/22 02:26:04;;;;;;;15.13;10.67;;;11.40;52.30;;;;;;5065634;28;46334;-68
2023/05/22 02:28:30;;;;;;;19.13;11.90;;;11.30;52.00;;;;;;5066646;28;46354;-68
2023/05/22 02:30:56;;;;;;;16.23;11.00;;;11.30;52.10;;;;;;5066864;28;46469;-68
2023/05/22 02:33:21;;;;;;;17.73;11.47;;;11.30;52.20;;;;;;5068308;27;47249;-68
2023/05/22 02:35:47;;;;;;;15.80;11.23;;;11.30;52.20;;;;;;5068855;28;46447;-69
2023/05/22 02:38:12;;;;;;;19.07;12.50;;;11.30;52.30;;;;;;5068457;28;46560;-69
2023/05/22 02:40:38;;;;;;;24.83;12.77;;;11.20;52.30;;;;;;5066386;28;46637;-69
2023/05/22 02:43:04;;;;;;;16.10;11.20;;;11.20;52.40;;;;;;5064470;28;46330;-69
2023/05/22 02:45:30;;;;;;;14.90;11.07;;;11.10;52.60;;;;;;5063970;28;46307;-69
2023/05/22 02:47:56;;;;;;;20.30;11.70;;;11.10;52.70;;;;;;5066769;28;46286;-68
2023/05/22 02:50:21;;;;;;;15.63;10.80;;;11.10;53.10;;;;;;5062858;28;46619;-69
2023/05/22 02:52:48;;;;;;;16.10;11.00;;;11.10;52.60;;;;;;5066586;28;46586;-68
2023/05/22 02:55:14;;;;;;;15.17;10.77;;;11.10;52.60;;;;;;5067899;27;46407;-68
2023/05/22 02:57:39;;;;;;;16.57;11.40;;;11.00;52.60;;;;;;5066623;28;46519;-69
2023/05/22 03:00:05;;;;;;;21.00;10.63;;;11.00;52.60;;;;;;5066019;28;46428;-68
2023/05/22 03:02:32;;;;;;;19.27;11.63;;;11.00;52.50;;;;;;5065229;28;47033;-68
2023/05/22 03:04:58;;;;;;;18.53;11.13;;;11.00;52.50;;;;;;5066566;28;47012;-68
2023/05/22 03:07:25;;;;;;;17.70;12.07;;;11.00;52.30;;;;;;5065867;28;46385;-68
2023/05/22 03:09:54;;;;;;;19.50;12.40;;;11.00;52.50;;;;;;5068573;28;46409;-68
2023/05/22 03:12:20;;;;;;;21.53;13.20;;;11.00;52.30;;;;;;5067353;27;46412;-68
2023/05/22 03:14:45;;;;;;;21.50;12.53;;;11.00;53.50;;;;;;5066338;28;45768;-69
2023/05/22 03:17:11;;;;;;;22.00;11.93;;;11.00;52.30;;;;;;5065732;28;46754;-68
2023/05/22 03:19:37;;;;;;;21.83;12.63;;;11.00;52.50;;;;;;5064996;28;46526;-69
2023/05/22 03:22:02;;;;;;;18.40;12.50;;;10.90;52.30;;;;;;5067859;28;46489;-68
2023/05/22 03:24:28;;;;;;;19.50;11.50;;;10.90;52.50;;;;;;5067930;28;46373;-69
2023/05/22 03:26:54;;;;;;;20.83;12.13;;;10.80;52.40;;;;;;5068985;28;46406;-69
2023/05/22 03:29:20;;;;;;;17.60;12.00;;;10.80;52.40;;;;;;5065007;28;46646;-68
2023/05/22 03:31:45;;;;;;;19.17;12.40;;;10.80;52.40;;;;;;5064863;28;46421;-68
2023/05/22 03:34:11;;;;;;;19.70;12.97;;;10.70;52.20;;;;;;5065690;28;46542;-69
2023/05/22 03:36:37;;;;;;;19.47;12.83;;;10.70;52.30;;;;;;5066540;28;45869;-69
2023/05/22 03:39:03;;;;;;;18.70;12.37;;;10.70;52.30;;;;;;5065507;28;46481;-69
2023/05/22 03:41:29;;;;;;;24.60;12.33;;;10.80;52.30;;;;;;5060190;28;46671;-68
2023/05/22 03:43:56;;;;;;;17.67;11.60;;;10.80;52.40;;;;;;5062121;28;47598;-68
2023/05/22 03:46:21;;;;;;;20.30;12.60;;;10.90;52.50;;;;;;5065381;28;46436;-68
2023/05/22 03:48:47;;;;;;;24.03;12.87;;;10.90;52.50;;;;;;5064005;27;46630;-68
2023/05/22 03:51:13;;;;;;;26.47;13.77;;;11.00;52.00;;;;;;5067553;28;46510;-68
2023/05/22 03:53:38;;;;;;;22.10;13.90;;;11.10;53.00;;;;;;5063380;28;46401;-68
2023/05/22 03:56:04;;;;;;;25.80;15.23;;;11.20;51.60;;;;;;5063264;28;46418;-68
2023/05/22 03:58:30;;;;;;;23.27;15.63;;;11.30;51.30;;;;;;5064106;28;46677;-68
2023/05/22 04:00:59;;;;;;;26.80;17.53;;;11.40;51.10;;;;;;5065141;28;47242;-68
2023/05/22 04:03:26;;;;;;;24.57;17.00;;;11.60;51.10;;;;;;5065529;28;46487;-69
2023/05/22 04:05:51;;;;;;;29.77;16.63;;;11.70;50.90;;;;;;5064558;28;45759;-69
2023/05/22 04:08:17;;;;;;;29.00;17.93;;;11.80;50.90;;;;;;5062886;28;45836;-68
2023/05/22 04:10:45;;;;;;;29.47;18.63;;;11.90;51.00;;;;;;5065049;28;46469;-68
2023/05/22 04:13:12;;;;;;;30.77;17.57;;;12.00;51.00;;;;;;5064121;28;46445;-68
2023/05/22 04:15:40;;;;;;;22.80;16.80;;;12.10;51.10;;;;;;5064478;28;46431;-69
2023/05/22 04:18:06;;;;;;;23.80;17.50;;;12.20;51.20;;;;;;5065552;27;46103;-68
2023/05/22 04:20:32;;;;;;;22.47;16.27;;;12.30;51.10;;;;;;5064737;28;46462;-68
2023/05/22 04:22:58;;;;;;;26.80;16.93;;;12.50;51.10;;;;;;5065969;28;46488;-69
2023/05/22 04:25:23;;;;;;;28.17;16.87;;;12.60;51.10;;;;;;5063897;28;46495;-69
2023/05/22 04:27:49;;;;;;;30.43;16.30;;;12.70;51.20;;;;;;5066196;28;46417;-68
2023/05/22 04:30:15;;;;;;;24.73;16.80;;;12.80;51.10;;;;;;5066629;28;46877;-68
2023/05/22 04:32:42;;;;;;;31.60;15.77;;;13.00;51.10;;;;;;5068207;28;46473;-69
2023/05/22 04:35:08;;;;;;;27.97;16.97;;;13.10;50.90;;;;;;5073036;27;46600;-68
2023/05/22 04:37:35;;;;;;;22.07;15.63;;;13.30;50.80;;;;;;5066225;28;46403;-68
2023/05/22 04:40:06;;;;;;;21.20;15.13;;;13.50;50.50;;;;;;5066028;28;46638;-69
2023/05/22 04:42:33;;;;;;;25.50;17.43;;;13.60;50.00;;;;;;5068958;28;46405;-68
2023/05/22 04:44:59;;;;;;;25.20;16.80;;;13.90;49.50;;;;;;5071038;28;46358;-68
2023/05/22 04:47:27;;;;;;;21.70;15.60;;;14.10;48.90;;;;;;5066199;28;46751;-68
2023/05/22 04:49:55;;;;;;;23.53;15.30;;;14.20;48.50;;;;;;5068630;28;46484;-68
2023/05/22 04:52:21;;;;;;;26.00;15.40;;;14.50;48.30;;;;;;5065890;28;46495;-69
2023/05/22 04:54:48;;;;;;;27.83;14.10;;;14.80;47.90;;;;;;5070027;28;46413;-68
2023/05/22 04:57:14;;;;;;;23.60;14.47;;;15.10;47.50;;;;;;5068949;28;46581;-68
2023/05/22 04:59:40;;;;;;;21.50;13.43;;;15.60;46.60;;;;;;5071969;28;46357;-68
2023/05/22 05:02:06;;;;;;;22.50;13.03;;;16.40;45.40;;;;;;5065838;28;46547;-69
2023/05/22 05:04:32;;;;;;;19.00;12.17;;;17.40;43.60;;;;;;5065370;28;46420;-68
2023/05/22 05:06:58;;;;;;;17.00;11.07;;;18.40;40.70;;;;;;5070144;28;45915;-68
2023/05/22 05:09:23;;;;;;;13.53;10.50;;;19.20;38.30;;;;;;5064625;28;46337;-69
2023/05/22 05:11:49;;;;;;;17.30;10.90;;;20.10;35.90;;;;;;5068220;28;46423;-67
2023/05/22 05:14:16;;;;;;;15.93;10.30;;;21.00;34.10;;;;;;5065948;27;46498;-68
2023/05/22 05:16:42;;;;;;;16.77;11.93;;;21.60;31.80;;;;;;5068872;28;46338;-68
2023/05/22 05:19:08;;;;;;;15.83;10.50;;;22.30;30.00;;;;;;5066767;27;46368;-68
2023/05/22 05:21:33;;;;;;;12.97;9.60;;;22.80;28.50;;;;;;5067172;28;46421;-67
2023/05/22 05:23:59;;;;;;;13.83;10.17;;;23.40;27.30;;;;;;5067774;28;46701;-68
2023/05/22 05:26:25;;;;;;;13.70;9.40;;;24.00;25.30;;;;;;5066669;28;46444;-68
2023/05/22 05:28:51;;;;;;;14.63;9.63;;;24.40;25.70;;;;;;5065860;28;46483;-67
2023/05/22 05:31:20;;;;;;;12.50;9.43;;;24.70;23.50;;;;;;5066966;28;46424;-68
2023/05/22 05:33:45;;;;;;;13.90;9.17;;;25.20;22.00;;;;;;5063539;27;46464;-68
2023/05/22 05:36:11;;;;;;;12.13;8.90;;;25.80;21.10;;;;;;5066376;28;46568;-70
2023/05/22 05:38:37;;;;;;;13.90;10.23;;;26.20;19.90;;;;;;5069433;28;46380;-67
2023/05/22 05:41:03;;;;;;;13.57;9.07;;;26.70;18.40;;;;;;5068352;28;46801;-67
2023/05/22 05:43:28;;;;;;;12.37;9.37;;;27.20;17.30;;;;;;5068765;28;46552;-67
2023/05/22 05:45:54;;;;;;;13.90;9.43;;;27.40;16.10;;;;;;5067818;28;46475;-69
2023/05/22 05:48:19;;;;;;;13.13;9.27;;;27.70;16.00;;;;;;5065878;28;46459;-70
2023/05/22 05:50:45;;;;;;;13.80;8.80;;;27.90;15.40;;;;;;5068460;28;45874;-70
2023/05/22 05:53:11;;;;;;;14.70;9.30;;;28.00;14.80;;;;;;5070893;28;45935;-70
2023/05/22 05:55:37;;;;;;;12.63;8.20;;;28.20;14.30;;;;;;5064662;28;46429;-68
2023/05/22 05:58:02;;;;;;;10.60;7.30;;;28.30;13.70;;;;;;5063581;27;46434;-69
2023/05/22 06:00:28;;;;;;;10.30;7.80;;;28.40;13.60;;;;;;5065101;28;46463;-68
2023/05/22 06:02:54;;;;;;;11.00;8.60;;;27.70;15.10;;;;;;5067509;28;46379;-66
2023/05/22 06:05:20;;;;;;;12.60;8.43;;;26.80;17.20;;;;;;5065462;28;45882;-67
2023/05/22 06:07:47;;;;;;;14.33;7.70;;;25.80;19.90;;;;;;5068005;28;46381;-67
2023/05/22 06:10:12;;;;;;;11.00;8.53;;;25.10;22.00;;;;;;5067092;28;46707;-68
2023/05/22 06:12:38;;;;;;;13.57;8.33;;;24.40;23.60;;;;;;5068483;28;46483;-68
2023/05/22 06:15:06;;;;;;;14.33;8.80;;;23.80;24.40;;;;;;5066455;28;46593;-68
2023/05/22 06:17:32;;;;;;;11.17;8.70;;;23.30;24.80;;;;;;5067592;28;46837;-69
2023/05/22 06:19:57;;;;;;;12.27;8.70;;;22.90;24.70;;;;;;5067707;27;45862;-68
2023/05/22 06:22:25;;;;;;;12.07;7.87;;;22.60;25.30;;;;;;5066563;28;46794;-70
2023/05/22 06:24:54;;;;;;;14.13;8.63;;;22.40;25.40;;;;;;5064806;28;46310;-68
2023/05/22 06:27:23;;;;;;;13.60;9.40;;;22.30;25.10;;;;;;5066797;28;46462;-69
2023/05/22 06:29:49;;;;;;;20.20;8.90;;;22.30;24.80;;;;;;5067113;28;46362;-70
2023/05/22 06:32:15;;;;;;;12.57;8.80;;;22.10;24.70;;;;;;5066370;28;46441;-70
2023/05/22 06:34:43;;;;;;;12.20;9.60;;;22.00;25.00;;;;;;5065421;28;45928;-70
2023/05/22 06:37:09;;;;;;;17.80;8.27;;;21.90;25.30;;;;;;5067060;28;46587;-70
2023/05/22 06:39:35;;;;;;;14.73;8.53;;;21.80;25.60;;;;;;5066962;28;46441;-71
2023/05/22 06:42:00;;;;;;;20.37;9.33;;;21.80;25.50;;;;;;5067491;28;46380;-70
2023/05/22 06:44:26;;;;;;;12.47;9.33;;;21.70;25.70;;;;;;5066290;27;46493;-67
2023/05/22 06:46:52;;;;;;;13.40;9.60;;;21.60;25.80;;;;;;5066977;28;47066;-70
2023/05/22 06:49:18;;;;;;;14.80;8.97;;;21.60;25.80;;;;;;5066794;28;45918;-73
2023/05/22 06:51:44;;;;;;;14.90;9.40;;;21.70;25.90;;;;;;5067522;28;46471;-70
2023/05/22 06:54:12;;;;;;;13.67;10.00;;;21.60;26.00;;;;;;5069481;27;46078;-69
2023/05/22 06:56:40;;;;;;;13.00;9.47;;;21.70;25.70;;;;;;5067039;28;46306;-69
2023/05/22 06:59:06;;;;;;;12.57;9.80;;;21.60;25.90;;;;;;5067580;28;46394;-68
2023/05/22 07:01:32;;;;;;;12.43;8.53;;;21.60;25.70;;;;;;5069450;27;46483;-67
2023/05/22 07:04:03;;;;;;;14.73;9.97;;;21.70;25.80;;;;;;5069098;28;46574;-68
2023/05/22 07:06:32;;;;;;;14.30;9.70;;;21.70;26.00;;;;;;5067674;27;47209;-69
2023/05/22 07:08:58;;;;;;;12.70;8.70;;;21.80;26.10;;;;;;5068541;28;46534;-69
2023/05/22 07:11:24;;;;;;;10.80;7.80;;;21.80;26.40;;;;;;5065801;27;46648;-69
2023/05/22 07:13:50;;;;;;;13.60;8.37;;;21.90;26.20;;;;;;5066151;28;46438;-67
2023/05/22 07:16:15;;;;;;;13.33;9.27;;;21.90;26.30;;;;;;5066017;28;46295;-69
2023/05/22 07:18:41;;;;;;;15.00;8.93;;;22.10;26.30;;;;;;5068097;28;46337;-71
2023/05/22 07:21:07;;;;;;;13.80;8.73;;;22.10;26.50;;;;;;5066733;28;46269;-69
2023/05/22 07:23:32;;;;;;;14.20;8.50;;;22.20;26.50;;;;;;5066316;28;46631;-69
2023/05/22 07:25:58;;;;;;;16.33;9.47;;;22.30;26.40;;;;;;5066817;28;46468;-70
2023/05/22 07:28:23;;;;;;;12.63;8.10;;;22.20;26.30;;;;;;5066044;28;46745;-69
2023/05/22 07:30:49;;;;;;;14.03;8.30;;;22.40;26.10;;;;;;5065333;28;46386;-70
2023/05/22 07:33:15;;;;;;;14.43;8.70;;;22.40;25.90;;;;;;5065572;28;46401;-69
2023/05/22 07:35:40;;;;;;;12.23;8.60;;;22.50;26.00;;;;;;5064854;27;46495;-69
2023/05/22 07:38:06;;;;;;;15.17;9.97;;;22.50;25.80;;;;;;5064635;28;46729;-69
2023/05/22 07:40:32;;;;;;;13.90;9.27;;;22.60;25.50;;;;;;5066357;28;46473;-69
2023/05/22 07:42:57;;;;;;;13.07;8.83;;;22.70;25.40;;;;;;5065205;27;46517;-67
2023/05/22 07:45:23;;;;;;;11.27;8.30;;;22.70;25.50;;;;;;5064769;28;47038;-70
2023/05/22 07:47:49;;;;;;;14.40;8.57;;;22.70;25.50;;;;;;5065739;28;46656;-69
2023/05/22 07:50:14;;;;;;;12.90;8.13;;;22.80;25.60;;;;;;5067105;28;46535;-68
2023/05/22 07:52:40;;;;;;;16.53;8.87;;;22.90;25.40;;;;;;5067830;28;46388;-73
2023/05/22 07:55:06;;;;;;;12.60;8.03;;;23.00;25.20;;;;;;5070798;28;46399;-69
2023/05/22 07:57:34;;;;;;;15.97;9.03;;;23.10;25.10;;;;;;5072704;27;45970;-69
2023/05/22 08:00:08;;;;;;;12.63;8.63;;;23.20;24.70;;;;;;5069969;27;46426;-68
2023/05/22 08:02:34;;;;;;;12.43;8.53;;;23.00;24.50;;;;;;5069039;28;46685;-67
2023/05/22 08:04:59;;;;;;;11.07;8.40;;;23.00;24.50;;;;;;5068570;28;47005;-69
2023/05/22 08:07:25;;;;;;;14.23;8.60;;;23.30;24.70;;;;;;5069820;28;45847;-68
2023/05/22 08:09:51;;;;;;;16.23;8.20;;;23.50;24.10;;;;;;5067669;28;46546;-67
2023/05/22 08:12:16;;;;;;;16.80;9.23;;;23.50;24.00;;;;;;5070469;28;46834;-69
2023/05/22 08:14:42;;;;;;;15.17;9.50;;;23.60;24.10;;;;;;5069710;28;46418;-69
2023/05/22 08:17:07;;;;;;;11.90;8.30;;;23.70;24.10;;;;;;5070101;27;46429;-68
2023/05/22 08:19:33;;;;;;;14.10;9.43;;;23.80;23.60;;;;;;5068528;28;45852;-69
2023/05/22 08:21:59;;;;;;;21.70;10.80;;;23.70;23.50;;;;;;5069761;28;45934;-67
2023/05/22 08:24:29;;;;;;;21.43;9.90;;;23.60;23.60;;;;;;5068060;28;46985;-69
2023/05/22 08:26:57;;;;;;;15.20;10.17;;;23.60;23.70;;;;;;5070867;27;46612;-69
2023/05/22 08:29:22;;;;;;;14.67;9.23;;;23.70;23.40;;;;;;5070106;28;46658;-69
2023/05/22 08:31:48;;;;;;;12.10;10.00;;;23.70;23.60;;;;;;5070377;28;46476;-69
2023/05/22 08:34:14;;;;;;;11.53;8.90;;;23.80;23.50;;;;;;5067614;28;47206;-67
2023/05/22 08:36:40;;;;;;;13.07;9.70;;;23.80;23.50;;;;;;5069414;28;45903;-66
2023/05/22 08:39:07;;;;;;;17.40;9.53;;;24.00;23.10;;;;;;5068199;28;46534;-67
2023/05/22 08:41:33;;;;;;;13.90;10.20;;;24.20;22.90;;;;;;5068790;28;46645;-67
2023/05/22 08:43:58;;;;;;;19.60;9.60;;;24.40;22.70;;;;;;5068622;28;46514;-65
2023/05/22 08:46:27;;;;;;;17.83;10.77;;;24.40;21.90;;;;;;5070144;28;46964;-67
2023/05/22 08:48:57;;;;;;;14.40;9.83;;;24.20;22.10;;;;;;5069470;28;46404;-69
2023/05/22 08:51:28;;;;;;;11.97;9.77;;;24.40;21.90;;;;;;5069771;28;46345;-65
2023/05/22 08:53:55;;;;;;;13.07;9.67;;;24.40;21.70;;;;;;5068423;28;46379;-67
2023/05/22 08:56:21;;;;;;;15.13;10.57;;;24.40;21.70;;;;;;5068982;28;46392;-67
2023/05/22 08:58:47;;;;;;;17.73;10.93;;;24.30;22.00;;;;;;5067329;27;46346;-66
2023/05/22 09:01:13;;;;;;;14.30;9.77;;;24.40;21.70;;;;;;5069110;27;46611;-67
2023/05/22 09:03:38;;;;;;;14.40;9.47;;;24.50;22.60;;;;;;5071052;28;46384;-68
2023/05/22 09:06:08;;;;;;;19.90;11.10;;;24.40;21.40;;;;;;5069118;28;46535;-68
2023/05/22 09:08:33;;;;;;;16.90;10.20;;;24.40;21.10;;;;;;5068115;28;46422;-68
2023/05/22 09:10:59;;;;;;;17.30;9.97;;;24.60;21.30;;;;;;5068642;28;46854;-66
2023/05/22 09:13:30;;;;;;;14.60;10.27;;;24.60;20.70;;;;;;5067956;28;46444;-67
2023/05/22 09:16:06;;;;;;;13.90;10.07;;;24.70;21.50;;;;;;5067262;27;46398;-66
2023/05/22 09:18:31;;;;;;;16.53;11.03;;;24.60;20.80;;;;;;5066699;28;46463;-68
2023/05/22 09:20:57;;;;;;;17.70;11.30;;;25.00;20.20;;;;;;5068440;28;45877;-71
2023/05/22 09:23:26;;;;;;;15.10;10.73;;;25.10;19.90;;;;;;5068606;28;46866;-69
2023/05/22 09:25:57;;;;;;;13.33;9.97;;;25.20;20.10;;;;;;5069435;28;46400;-68
2023/05/22 09:28:23;;;;;;;17.17;11.40;;;25.50;19.90;;;;;;5069756;28;46394;-67
2023/05/22 09:30:53;;;;;;;15.20;11.23;;;25.50;19.80;;;;;;5069985;27;46418;-66
2023/05/22 09:33:20;;;;;;;15.43;10.00;;;25.40;19.70;;;;;;5068665;28;46492;-68
2023/05/22 09:35:47;;;;;;;21.77;10.60;;;25.60;19.50;;;;;;5068274;27;45804;-68
2023/05/22 09:38:13;;;;;;;16.40;11.23;;;25.40;20.00;;;;;;5068920;28;45938;-67
2023/05/22 09:40:39;;;;;;;17.83;10.80;;;25.20;19.90;;;;;;5067988;28;45880;-68
2023/05/22 09:43:16;;;;;;;15.00;11.07;;;25.40;19.60;;;;;;5067657;28;46816;-68
2023/05/22 09:45:41;;;;;;;16.60;11.23;;;25.40;19.50;;;;;;5069178;28;46513;-68
2023/05/22 09:48:08;;;;;;;23.60;11.03;;;25.50;19.40;;;;;;5067305;28;46476;-69
2023/05/22 09:50:36;;;;;;;14.10;10.60;;;25.60;19.20;;;;;;5068694;28;46682;-67
2023/05/22 09:53:03;;;;;;;14.10;11.00;;;25.70;18.60;;;;;;5067955;27;46694;-69
2023/05/22 09:55:30;;;;;;;17.23;10.57;;;25.40;18.10;;;;;;5067140;28;46392;-69
2023/05/22 09:57:57;;;;;;;17.40;11.23;;;25.10;18.40;;;;;;5067531;28;46661;-67
2023/05/22 10:00:24;;;;;;;19.90;11.00;;;25.20;18.40;;;;;;5069439;27;46540;-65
2023/05/22 10:02:57;;;;;;;16.23;10.00;;;25.20;18.50;;;;;;5071520;28;46518;-66
2023/05/22 10:05:30;;;;;;;18.07;10.83;;;25.00;18.30;;;;;;5067659;28;46499;-63
2023/05/22 10:08:01;;;;;;;17.30;10.90;;;25.00;18.10;;;;;;5067687;27;46435;-65
2023/05/22 10:10:27;;;;;;;14.07;10.30;;;25.00;18.90;;;;;;5069892;28;46459;-65
2023/05/22 10:12:55;;;;;;;12.60;9.47;;;25.20;18.90;;;;;;5066102;28;47133;-64
2023/05/22 10:15:22;;;;;;;15.37;9.93;;;25.20;18.50;;;;;;5066845;28;46702;-65
2023/05/22 10:17:48;;;;;;;20.10;10.60;;;25.40;18.20;;;;;;5066937;28;45859;-64
2023/05/22 10:20:15;;;;;;;16.50;10.60;;;25.30;17.70;;;;;;5068730;28;45898;-66
2023/05/22 10:22:42;;;;;;;19.17;11.20;;;25.50;17.70;;;;;;5071577;28;46410;-64
2023/05/22 10:25:08;;;;;;;14.23;10.10;;;25.70;17.50;;;;;;5065626;28;46454;-68
2023/05/22 10:27:34;;;;;;;15.33;10.40;;;25.90;17.40;;;;;;5067402;28;46524;-65
2023/05/22 10:30:06;;;;;;;16.03;10.90;;;26.00;17.30;;;;;;5066385;28;46693;-64
2023/05/22 10:32:41;;;;;;;15.97;11.27;;;26.10;17.20;;;;;;5067804;28;46567;-64
2023/05/22 10:35:24;;;;;;;13.33;10.13;;;26.30;16.90;;;;;;5065685;28;46543;-66
2023/05/22 10:37:52;;;;;;;21.83;9.53;;;26.40;16.40;;;;;;5066270;28;46996;-66
2023/05/22 10:40:29;;;;;;;15.23;10.40;;;26.60;16.30;;;;;;5066526;27;46907;-63
2023/05/22 10:43:02;;;;;;;21.60;10.20;;;26.80;15.80;;;;;;5067636;28;46901;-65
2023/05/22 10:45:28;;;;;;;14.60;9.93;;;26.70;16.10;;;;;;5065901;28;46483;-66
2023/05/22 10:48:08;;;;;;;15.57;10.67;;;26.80;15.80;;;;;;5065463;28;46375;-65
2023/05/22 10:50:35;;;;;;;14.13;10.07;;;26.80;15.80;;;;;;5065214;28;46496;-65
2023/05/22 10:53:30;;;;;;;16.33;10.83;;;26.80;15.80;;;;;;5067254;28;46754;-65
2023/05/22 10:55:57;;;;;;;15.83;11.60;;;26.70;15.80;;;;;;5065952;28;46449;-67
2023/05/22 10:58:31;;;;;;;23.37;11.00;;;26.80;15.80;;;;;;5066097;27;46490;-67
2023/05/22 11:01:17;;;;;;;16.57;10.80;;;27.00;15.90;;;;;;5066275;28;46444;-65
2023/05/22 11:04:12;;;;;;;15.23;10.60;;;27.30;16.10;;;;;;5066413;28;46506;-65
2023/05/22 11:07:03;;;;;;;10.93;8.90;;;27.50;15.30;;;;;;5065957;28;46476;-64
2023/05/22 11:09:46;;;;;;;14.60;10.43;;;27.70;15.40;;;;;;5065392;28;46544;-64
2023/05/22 11:12:24;;;;;;;19.53;11.67;;;27.50;14.80;;;;;;5066000;27;46317;-64
2023/05/22 11:14:50;;;;;;;23.90;11.13;;;26.90;14.90;;;;;;5065411;28;46976;-65
2023/05/22 11:17:19;;;;;;;21.60;11.10;;;26.70;14.80;;;;;;5066769;28;46448;-64
2023/05/22 11:19:57;;;;;;;15.50;11.40;;;26.40;15.60;;;;;;5066218;28;46471;-64
2023/05/22 11:22:29;;;;;;;16.90;11.60;;;26.20;15.50;;;;;;5067439;27;46310;-64
2023/05/22 11:24:55;;;;;;;17.47;11.73;;;26.10;15.40;;;;;;5064796;28;47426;-64
2023/05/22 11:27:20;;;;;;;18.30;13.03;;;26.00;15.40;;;;;;5065352;28;46344;-65
2023/05/22 11:29:47;;;;;;;22.20;12.27;;;25.90;15.30;;;;;;5067582;28;46497;-64
2023/05/22 11:32:19;;;;;;;18.90;10.57;;;25.90;15.40;;;;;;5065262;27;46567;-66
2023/05/22 11:34:45;;;;;;;19.20;13.00;;;26.10;15.40;;;;;;5065230;28;46540;-64
2023/05/22 11:37:11;;;;;;;19.40;13.43;;;25.90;15.30;;;;;;5065399;28;46486;-64
2023/05/22 11:39:37;;;;;;;17.77;12.10;;;25.80;15.30;;;;;;5066700;28;46427;-66
2023/05/22 11:42:03;;;;;;;15.07;11.10;;;25.70;16.10;;;;;;5067921;28;46331;-65
2023/05/22 11:44:29;;;;;;;21.40;12.60;;;25.90;16.00;;;;;;5065115;28;47151;-64
2023/05/22 11:46:55;;;;;;;18.90;13.30;;;25.90;15.90;;;;;;5065914;28;46512;-64
2023/05/22 11:49:22;;;;;;;17.33;12.43;;;25.80;15.80;;;;;;5066086;28;46398;-62
2023/05/22 11:51:48;;;;;;;19.13;12.43;;;25.80;15.30;;;;;;5066981;28;46471;-63
2023/05/22 11:54:17;;;;;;;14.57;10.97;;;25.80;16.40;;;;;;5067270;27;46900;-63
2023/05/22 11:56:44;;;;;;;17.23;12.60;;;25.80;15.40;;;;;;5066488;28;46464;-62
2023/05/22 11:59:09;;;;;;;15.60;11.47;;;25.80;15.30;;;;;;5063767;28;46403;-62
2023/05/22 12:01:35;;;;;;;16.17;11.90;;;25.70;15.30;;;;;;5065071;28;46500;-63
2023/05/22 12:04:02;;;;;;;20.43;11.77;;;25.70;15.70;;;;;;5064644;28;46319;-65
2023/05/22 12:06:31;;;;;;;15.90;12.57;;;25.80;15.30;;;;;;5064058;28;46493;-65
2023/05/22 12:09:00;;;;;;;18.47;12.57;;;25.90;15.30;;;;;;5066255;27;46540;-64
2023/05/22 12:11:26;;;;;;;21.30;11.77;;;25.80;15.30;;;;;;5065646;28;46357;-65
2023/05/22 12:14:05;;;;;;;17.73;11.63;;;25.80;15.30;;;;;;5068405;28;46361;-64
2023/05/22 12:16:35;;;;;;;13.70;11.23;;;26.00;15.40;;;;;;5067235;27;45886;-64
2023/05/22 12:19:08;;;;;;;15.00;11.50;;;26.20;15.50;;;;;;5069776;28;46633;-64
2023/05/22 12:21:35;;;;;;;19.93;12.43;;;26.30;15.60;;;;;;5064575;28;46471;-65
2023/05/22 12:24:04;;;;;;;15.80;11.27;;;26.20;15.50;;;;;;5065091;28;46539;-64
2023/05/22 12:26:31;;;;;;;16.60;11.77;;;26.10;15.40;;;;;;5067304;28;46476;-63
2023/05/22 12:28:57;;;;;;;19.00;11.50;;;25.90;15.30;;;;;;5065721;28;46487;-63
2023/05/22 12:31:24;;;;;;;20.37;10.97;;;25.90;15.30;;;;;;5065651;28;46544;-64
2023/05/22 12:33:53;;;;;;;18.97;11.00;;;26.20;15.50;;;;;;5065683;28;46611;-65